sensor_id;sensor_type;location;lat;lon;timestamp;P1;durP1;ratioP1;P2;durP2;ratioP2
38805;SDS011;25635;51.146;17.162;2023-06-24T00:01:29;18.40;;;14.30;;
38805;SDS011;25635;51.146;17.162;2023-06-24T00:03:57;18.40;;;14.60;;
38805;SDS011;25635;51.146;17.162;2023-06-24T00:06:23;17.90;;;13.80;;
38805;SDS011;25635;51.146;17.162;2023-06-24T00:08:51;18.20;;;14.40;;
38805;SDS011;25635;51.146;17.162;2023-06-24T00:11:26;15.80;;;13.10;;
38805;SDS011;25635;51.146;17.162;2023-06-24T00:13:54;18.60;;;14.40;;
38805;SDS011;25635;51.146;17.162;2023-06-24T00:16:20;18.60;;;13.60;;
38805;SDS011;25635;51.146;17.162;2023-06-24T00:18:53;16.60;;;13.20;;
38805;SDS011;25635;51.146;17.162;2023-06-24T00:21:20;16.80;;;13.00;;
38805;SDS011;25635;51.146;17.162;2023-06-24T00:23:46;20.40;;;13.20;;
38805;SDS011;25635;51.146;17.162;2023-06-24T00:26:14;17.50;;;12.80;;
38805;SDS011;25635;51.146;17.162;2023-06-24T00:28:42;18.50;;;13.70;;
38805;SDS011;25635;51.146;17.162;2023-06-24T00:31:08;16.10;;;12.30;;
38805;SDS011;25635;51.146;17.162;2023-06-24T00:33:34;18.60;;;13.30;;
38805;SDS011;25635;51.146;17.162;2023-06-24T00:36:02;16.90;;;12.90;;
38805;SDS011;25635;51.146;17.162;2023-06-24T00:38:28;17.40;;;13.10;;
38805;SDS011;25635;51.146;17.162;2023-06-24T00:40:58;18.00;;;13.10;;
38805;SDS011;25635;51.146;17.162;2023-06-24T00:43:24;18.30;;;13.40;;
38805;SDS011;25635;51.146;17.162;2023-06-24T00:45:50;17.00;;;13.60;;
38805;SDS011;25635;51.146;17.162;2023-06-24T00:48:18;17.70;;;13.90;;
38805;SDS011;25635;51.146;17.162;2023-06-24T00:50:47;17.80;;;13.90;;
38805;SDS011;25635;51.146;17.162;2023-06-24T00:53:18;20.50;;;14.80;;
38805;SDS011;25635;51.146;17.162;2023-06-24T00:55:50;17.40;;;14.00;;
38805;SDS011;25635;51.146;17.162;2023-06-24T00:58:18;18.20;;;13.30;;
38805;SDS011;25635;51.146;17.162;2023-06-24T01:00:46;17.00;;;13.00;;
38805;SDS011;25635;51.146;17.162;2023-06-24T01:03:23;17.00;;;13.00;;
38805;SDS011;25635;51.146;17.162;2023-06-24T01:05:50;13.90;;;11.00;;
38805;SDS011;25635;51.146;17.162;2023-06-24T01:08:17;13.80;;;11.00;;
38805;SDS011;25635;51.146;17.162;2023-06-24T01:10:45;13.50;;;10.80;;
38805;SDS011;25635;51.146;17.162;2023-06-24T01:13:11;13.10;;;9.70;;
38805;SDS011;25635;51.146;17.162;2023-06-24T01:15:37;15.10;;;9.30;;
38805;SDS011;25635;51.146;17.162;2023-06-24T01:18:10;12.20;;;8.70;;
38805;SDS011;25635;51.146;17.162;2023-06-24T01:20:52;12.10;;;9.20;;
38805;SDS011;25635;51.146;17.162;2023-06-24T01:29:23;11.60;;;8.20;;
38805;SDS011;25635;51.146;17.162;2023-06-24T01:32:06;12.30;;;8.80;;
38805;SDS011;25635;51.146;17.162;2023-06-24T01:34:49;12.10;;;7.70;;
38805;SDS011;25635;51.146;17.162;2023-06-24T01:37:25;12.30;;;7.60;;
38805;SDS011;25635;51.146;17.162;2023-06-24T01:42:37;9.80;;;6.90;;
38805;SDS011;25635;51.146;17.162;2023-06-24T01:45:09;8.40;;;5.90;;
38805;SDS011;25635;51.146;17.162;2023-06-24T01:47:39;8.70;;;6.10;;
38805;SDS011;25635;51.146;17.162;2023-06-24T01:50:08;8.00;;;6.10;;
38805;SDS011;25635;51.146;17.162;2023-06-24T01:52:37;9.40;;;5.90;;
38805;SDS011;25635;51.146;17.162;2023-06-24T01:55:06;8.20;;;6.20;;
38805;SDS011;25635;51.146;17.162;2023-06-24T01:57:35;10.90;;;6.20;;
38805;SDS011;25635;51.146;17.162;2023-06-24T02:00:04;9.70;;;6.10;;
38805;SDS011;25635;51.146;17.162;2023-06-24T02:02:31;9.90;;;6.10;;
38805;SDS011;25635;51.146;17.162;2023-06-24T02:04:59;9.80;;;5.60;;
38805;SDS011;25635;51.146;17.162;2023-06-24T02:07:28;8.10;;;6.10;;
38805;SDS011;25635;51.146;17.162;2023-06-24T02:09:55;11.20;;;5.70;;
38805;SDS011;25635;51.146;17.162;2023-06-24T02:12:24;10.00;;;6.40;;
38805;SDS011;25635;51.146;17.162;2023-06-24T02:14:52;9.30;;;5.60;;
38805;SDS011;25635;51.146;17.162;2023-06-24T02:17:20;7.60;;;5.10;;
38805;SDS011;25635;51.146;17.162;2023-06-24T02:19:50;9.10;;;5.50;;
38805;SDS011;25635;51.146;17.162;2023-06-24T02:22:17;12.10;;;5.40;;
38805;SDS011;25635;51.146;17.162;2023-06-24T02:24:45;8.10;;;5.40;;
38805;SDS011;25635;51.146;17.162;2023-06-24T02:27:13;8.80;;;5.20;;
38805;SDS011;25635;51.146;17.162;2023-06-24T02:29:39;8.70;;;5.10;;
38805;SDS011;25635;51.146;17.162;2023-06-24T02:32:07;10.70;;;5.70;;
38805;SDS011;25635;51.146;17.162;2023-06-24T02:34:34;7.50;;;5.10;;
38805;SDS011;25635;51.146;17.162;2023-06-24T02:37:00;8.60;;;5.60;;
38805;SDS011;25635;51.146;17.162;2023-06-24T02:39:26;8.90;;;5.20;;
38805;SDS011;25635;51.146;17.162;2023-06-24T02:41:53;9.80;;;5.70;;
38805;SDS011;25635;51.146;17.162;2023-06-24T02:44:19;8.60;;;5.50;;
38805;SDS011;25635;51.146;17.162;2023-06-24T02:46:45;9.20;;;5.90;;
38805;SDS011;25635;51.146;17.162;2023-06-24T02:49:13;8.80;;;5.90;;
38805;SDS011;25635;51.146;17.162;2023-06-24T02:51:41;12.60;;;6.40;;
38805;SDS011;25635;51.146;17.162;2023-06-24T02:54:08;8.80;;;5.40;;
38805;SDS011;25635;51.146;17.162;2023-06-24T02:56:35;8.30;;;5.30;;
38805;SDS011;25635;51.146;17.162;2023-06-24T02:59:07;7.80;;;5.40;;
38805;SDS011;25635;51.146;17.162;2023-06-24T03:01:34;7.50;;;5.30;;
38805;SDS011;25635;51.146;17.162;2023-06-24T03:04:04;8.40;;;5.20;;
38805;SDS011;25635;51.146;17.162;2023-06-24T03:06:31;10.30;;;5.60;;
38805;SDS011;25635;51.146;17.162;2023-06-24T03:08:58;10.30;;;5.10;;
38805;SDS011;25635;51.146;17.162;2023-06-24T03:11:25;9.70;;;5.30;;
38805;SDS011;25635;51.146;17.162;2023-06-24T03:13:53;8.90;;;5.20;;
38805;SDS011;25635;51.146;17.162;2023-06-24T03:16:19;8.30;;;5.00;;
38805;SDS011;25635;51.146;17.162;2023-06-24T03:18:46;8.60;;;5.30;;
38805;SDS011;25635;51.146;17.162;2023-06-24T03:21:11;10.00;;;5.10;;
38805;SDS011;25635;51.146;17.162;2023-06-24T03:23:37;8.10;;;5.40;;
38805;SDS011;25635;51.146;17.162;2023-06-24T03:26:05;8.90;;;5.20;;
38805;SDS011;25635;51.146;17.162;2023-06-24T03:28:33;8.30;;;5.30;;
38805;SDS011;25635;51.146;17.162;2023-06-24T03:30:59;8.60;;;5.40;;
38805;SDS011;25635;51.146;17.162;2023-06-24T03:33:25;10.50;;;5.80;;
38805;SDS011;25635;51.146;17.162;2023-06-24T03:35:52;8.90;;;5.60;;
38805;SDS011;25635;51.146;17.162;2023-06-24T03:38:20;8.80;;;6.00;;
38805;SDS011;25635;51.146;17.162;2023-06-24T03:40:47;9.60;;;5.50;;
38805;SDS011;25635;51.146;17.162;2023-06-24T03:43:13;9.30;;;6.00;;
38805;SDS011;25635;51.146;17.162;2023-06-24T03:45:38;10.90;;;6.20;;
38805;SDS011;25635;51.146;17.162;2023-06-24T03:48:05;10.60;;;6.50;;
38805;SDS011;25635;51.146;17.162;2023-06-24T03:50:31;10.50;;;6.10;;
38805;SDS011;25635;51.146;17.162;2023-06-24T03:52:57;9.00;;;5.60;;
38805;SDS011;25635;51.146;17.162;2023-06-24T03:55:23;8.30;;;5.20;;
38805;SDS011;25635;51.146;17.162;2023-06-24T03:57:49;9.30;;;5.30;;
38805;SDS011;25635;51.146;17.162;2023-06-24T04:00:15;10.70;;;5.20;;
38805;SDS011;25635;51.146;17.162;2023-06-24T04:02:42;10.30;;;5.90;;
38805;SDS011;25635;51.146;17.162;2023-06-24T04:05:09;8.10;;;4.80;;
38805;SDS011;25635;51.146;17.162;2023-06-24T04:07:35;9.00;;;5.60;;
38805;SDS011;25635;51.146;17.162;2023-06-24T04:10:02;8.30;;;4.90;;
38805;SDS011;25635;51.146;17.162;2023-06-24T04:12:29;8.40;;;5.30;;
38805;SDS011;25635;51.146;17.162;2023-06-24T04:14:55;8.50;;;5.40;;
38805;SDS011;25635;51.146;17.162;2023-06-24T04:17:21;9.50;;;5.40;;
38805;SDS011;25635;51.146;17.162;2023-06-24T04:19:47;10.30;;;5.70;;
38805;SDS011;25635;51.146;17.162;2023-06-24T04:22:13;8.50;;;5.10;;
38805;SDS011;25635;51.146;17.162;2023-06-24T04:24:39;9.10;;;5.50;;
38805;SDS011;25635;51.146;17.162;2023-06-24T04:27:06;8.70;;;5.70;;
38805;SDS011;25635;51.146;17.162;2023-06-24T04:29:34;8.20;;;5.40;;
38805;SDS011;25635;51.146;17.162;2023-06-24T04:32:00;9.60;;;5.60;;
38805;SDS011;25635;51.146;17.162;2023-06-24T04:34:26;9.50;;;5.00;;
38805;SDS011;25635;51.146;17.162;2023-06-24T04:36:52;7.50;;;4.80;;
38805;SDS011;25635;51.146;17.162;2023-06-24T04:39:18;7.10;;;4.90;;
38805;SDS011;25635;51.146;17.162;2023-06-24T04:41:44;7.30;;;5.30;;
38805;SDS011;25635;51.146;17.162;2023-06-24T04:44:11;7.80;;;4.90;;
38805;SDS011;25635;51.146;17.162;2023-06-24T04:46:37;7.80;;;4.90;;
38805;SDS011;25635;51.146;17.162;2023-06-24T04:49:05;8.80;;;5.20;;
38805;SDS011;25635;51.146;17.162;2023-06-24T04:51:31;6.50;;;4.50;;
38805;SDS011;25635;51.146;17.162;2023-06-24T04:53:58;8.30;;;4.80;;
38805;SDS011;25635;51.146;17.162;2023-06-24T04:56:25;7.60;;;4.00;;
38805;SDS011;25635;51.146;17.162;2023-06-24T04:58:52;8.10;;;4.10;;
38805;SDS011;25635;51.146;17.162;2023-06-24T05:01:20;7.20;;;4.00;;
38805;SDS011;25635;51.146;17.162;2023-06-24T05:03:46;7.50;;;4.20;;
38805;SDS011;25635;51.146;17.162;2023-06-24T05:06:12;7.60;;;4.00;;
38805;SDS011;25635;51.146;17.162;2023-06-24T05:08:38;5.50;;;3.20;;
38805;SDS011;25635;51.146;17.162;2023-06-24T05:11:04;6.40;;;3.50;;
38805;SDS011;25635;51.146;17.162;2023-06-24T05:13:31;6.70;;;3.30;;
38805;SDS011;25635;51.146;17.162;2023-06-24T05:15:57;5.70;;;3.40;;
38805;SDS011;25635;51.146;17.162;2023-06-24T05:18:23;6.20;;;3.70;;
38805;SDS011;25635;51.146;17.162;2023-06-24T05:20:49;5.90;;;3.00;;
38805;SDS011;25635;51.146;17.162;2023-06-24T05:23:15;6.30;;;3.40;;
38805;SDS011;25635;51.146;17.162;2023-06-24T05:25:41;7.60;;;3.80;;
38805;SDS011;25635;51.146;17.162;2023-06-24T05:28:07;18.60;;;4.20;;
38805;SDS011;25635;51.146;17.162;2023-06-24T05:30:33;6.40;;;3.30;;
38805;SDS011;25635;51.146;17.162;2023-06-24T05:32:59;7.40;;;3.50;;
38805;SDS011;25635;51.146;17.162;2023-06-24T05:35:24;6.30;;;2.90;;
38805;SDS011;25635;51.146;17.162;2023-06-24T05:37:51;5.90;;;2.40;;
38805;SDS011;25635;51.146;17.162;2023-06-24T05:40:16;6.00;;;2.80;;
38805;SDS011;25635;51.146;17.162;2023-06-24T05:42:42;4.70;;;2.40;;
38805;SDS011;25635;51.146;17.162;2023-06-24T05:45:09;7.40;;;2.70;;
38805;SDS011;25635;51.146;17.162;2023-06-24T05:47:35;5.90;;;2.60;;
38805;SDS011;25635;51.146;17.162;2023-06-24T05:50:01;5.00;;;2.40;;
38805;SDS011;25635;51.146;17.162;2023-06-24T05:52:27;5.60;;;2.20;;
38805;SDS011;25635;51.146;17.162;2023-06-24T05:54:54;4.40;;;2.50;;
38805;SDS011;25635;51.146;17.162;2023-06-24T05:57:20;6.30;;;3.10;;
38805;SDS011;25635;51.146;17.162;2023-06-24T05:59:46;5.80;;;2.40;;
38805;SDS011;25635;51.146;17.162;2023-06-24T06:02:12;7.40;;;3.10;;
38805;SDS011;25635;51.146;17.162;2023-06-24T06:04:38;5.90;;;3.00;;
38805;SDS011;25635;51.146;17.162;2023-06-24T06:07:05;5.60;;;2.90;;
38805;SDS011;25635;51.146;17.162;2023-06-24T06:09:31;6.70;;;3.20;;
38805;SDS011;25635;51.146;17.162;2023-06-24T06:11:57;5.80;;;3.00;;
38805;SDS011;25635;51.146;17.162;2023-06-24T06:14:23;4.80;;;2.60;;
38805;SDS011;25635;51.146;17.162;2023-06-24T06:16:49;5.70;;;3.00;;
38805;SDS011;25635;51.146;17.162;2023-06-24T06:19:15;4.60;;;2.70;;
38805;SDS011;25635;51.146;17.162;2023-06-24T06:21:41;6.60;;;3.00;;
38805;SDS011;25635;51.146;17.162;2023-06-24T06:24:07;6.30;;;3.00;;
38805;SDS011;25635;51.146;17.162;2023-06-24T06:26:33;6.10;;;3.10;;
38805;SDS011;25635;51.146;17.162;2023-06-24T06:28:59;6.50;;;3.30;;
38805;SDS011;25635;51.146;17.162;2023-06-24T06:31:25;7.70;;;3.60;;
38805;SDS011;25635;51.146;17.162;2023-06-24T06:33:51;6.20;;;3.50;;
38805;SDS011;25635;51.146;17.162;2023-06-24T06:36:17;7.00;;;3.50;;
38805;SDS011;25635;51.146;17.162;2023-06-24T06:38:43;6.50;;;3.50;;
38805;SDS011;25635;51.146;17.162;2023-06-24T06:41:09;7.10;;;3.40;;
38805;SDS011;25635;51.146;17.162;2023-06-24T06:43:37;6.60;;;4.00;;
38805;SDS011;25635;51.146;17.162;2023-06-24T06:46:03;7.50;;;4.20;;
38805;SDS011;25635;51.146;17.162;2023-06-24T06:48:29;7.00;;;4.70;;
38805;SDS011;25635;51.146;17.162;2023-06-24T06:50:55;7.50;;;4.90;;
38805;SDS011;25635;51.146;17.162;2023-06-24T06:53:21;8.40;;;5.10;;
38805;SDS011;25635;51.146;17.162;2023-06-24T06:55:47;8.00;;;5.20;;
38805;SDS011;25635;51.146;17.162;2023-06-24T06:58:13;8.00;;;5.40;;
38805;SDS011;25635;51.146;17.162;2023-06-24T07:00:39;10.20;;;5.50;;
38805;SDS011;25635;51.146;17.162;2023-06-24T07:03:04;7.70;;;5.10;;
38805;SDS011;25635;51.146;17.162;2023-06-24T07:05:31;8.70;;;5.20;;
38805;SDS011;25635;51.146;17.162;2023-06-24T07:07:57;7.50;;;5.00;;
38805;SDS011;25635;51.146;17.162;2023-06-24T07:10:22;7.60;;;5.00;;
38805;SDS011;25635;51.146;17.162;2023-06-24T07:12:49;7.20;;;4.80;;
38805;SDS011;25635;51.146;17.162;2023-06-24T07:15:15;7.70;;;5.50;;
38805;SDS011;25635;51.146;17.162;2023-06-24T07:17:41;8.50;;;5.40;;
38805;SDS011;25635;51.146;17.162;2023-06-24T07:20:08;8.50;;;5.40;;
38805;SDS011;25635;51.146;17.162;2023-06-24T07:22:34;9.20;;;5.30;;
38805;SDS011;25635;51.146;17.162;2023-06-24T07:25:00;8.60;;;5.00;;
38805;SDS011;25635;51.146;17.162;2023-06-24T07:27:26;9.50;;;5.20;;
38805;SDS011;25635;51.146;17.162;2023-06-24T07:29:52;8.20;;;5.70;;
38805;SDS011;25635;51.146;17.162;2023-06-24T07:32:18;8.70;;;5.70;;
38805;SDS011;25635;51.146;17.162;2023-06-24T07:34:44;8.50;;;5.60;;
38805;SDS011;25635;51.146;17.162;2023-06-24T07:37:10;7.50;;;5.50;;
38805;SDS011;25635;51.146;17.162;2023-06-24T07:39:36;6.80;;;5.20;;
38805;SDS011;25635;51.146;17.162;2023-06-24T07:42:02;8.50;;;5.50;;
38805;SDS011;25635;51.146;17.162;2023-06-24T07:44:28;7.80;;;4.90;;
38805;SDS011;25635;51.146;17.162;2023-06-24T07:46:54;7.80;;;5.30;;
38805;SDS011;25635;51.146;17.162;2023-06-24T07:49:20;7.30;;;4.80;;
38805;SDS011;25635;51.146;17.162;2023-06-24T07:51:46;7.40;;;5.10;;
38805;SDS011;25635;51.146;17.162;2023-06-24T07:54:14;8.40;;;5.40;;
38805;SDS011;25635;51.146;17.162;2023-06-24T07:56:41;9.70;;;5.70;;
38805;SDS011;25635;51.146;17.162;2023-06-24T07:59:08;9.40;;;5.30;;
38805;SDS011;25635;51.146;17.162;2023-06-24T08:01:34;7.60;;;4.90;;
38805;SDS011;25635;51.146;17.162;2023-06-24T08:04:00;7.20;;;5.20;;
38805;SDS011;25635;51.146;17.162;2023-06-24T08:06:26;8.30;;;4.80;;
38805;SDS011;25635;51.146;17.162;2023-06-24T08:08:52;7.30;;;5.30;;
38805;SDS011;25635;51.146;17.162;2023-06-24T08:11:18;7.30;;;5.50;;
38805;SDS011;25635;51.146;17.162;2023-06-24T08:13:45;7.70;;;5.40;;
38805;SDS011;25635;51.146;17.162;2023-06-24T08:16:15;8.10;;;5.40;;
38805;SDS011;25635;51.146;17.162;2023-06-24T08:18:42;8.40;;;5.50;;
38805;SDS011;25635;51.146;17.162;2023-06-24T08:21:09;8.60;;;5.10;;
38805;SDS011;25635;51.146;17.162;2023-06-24T08:23:35;10.00;;;5.70;;
38805;SDS011;25635;51.146;17.162;2023-06-24T08:26:01;7.30;;;5.20;;
38805;SDS011;25635;51.146;17.162;2023-06-24T08:28:28;7.90;;;5.80;;
38805;SDS011;25635;51.146;17.162;2023-06-24T08:30:54;7.80;;;5.50;;
38805;SDS011;25635;51.146;17.162;2023-06-24T08:33:20;7.00;;;5.20;;
38805;SDS011;25635;51.146;17.162;2023-06-24T08:35:46;8.70;;;5.30;;
38805;SDS011;25635;51.146;17.162;2023-06-24T08:38:12;8.50;;;6.40;;
38805;SDS011;25635;51.146;17.162;2023-06-24T08:40:38;7.70;;;5.80;;
38805;SDS011;25635;51.146;17.162;2023-06-24T08:43:06;8.70;;;6.10;;
38805;SDS011;25635;51.146;17.162;2023-06-24T08:45:32;10.10;;;6.40;;
38805;SDS011;25635;51.146;17.162;2023-06-24T08:47:58;9.60;;;6.40;;
38805;SDS011;25635;51.146;17.162;2023-06-24T08:50:29;7.40;;;5.70;;
38805;SDS011;25635;51.146;17.162;2023-06-24T08:53:00;8.00;;;5.70;;
38805;SDS011;25635;51.146;17.162;2023-06-24T08:55:31;7.50;;;5.60;;
38805;SDS011;25635;51.146;17.162;2023-06-24T08:58:02;7.90;;;5.60;;
38805;SDS011;25635;51.146;17.162;2023-06-24T09:00:28;8.00;;;5.80;;
38805;SDS011;25635;51.146;17.162;2023-06-24T09:02:55;8.00;;;5.70;;
38805;SDS011;25635;51.146;17.162;2023-06-24T09:05:21;7.70;;;5.30;;
38805;SDS011;25635;51.146;17.162;2023-06-24T09:07:47;8.30;;;5.50;;
38805;SDS011;25635;51.146;17.162;2023-06-24T09:10:29;6.40;;;5.00;;
38805;SDS011;25635;51.146;17.162;2023-06-24T09:15:30;7.50;;;5.70;;
38805;SDS011;25635;51.146;17.162;2023-06-24T09:17:57;8.60;;;6.20;;
38805;SDS011;25635;51.146;17.162;2023-06-24T09:20:23;10.10;;;6.20;;
38805;SDS011;25635;51.146;17.162;2023-06-24T09:22:50;8.10;;;5.90;;
38805;SDS011;25635;51.146;17.162;2023-06-24T09:25:17;7.70;;;6.00;;
38805;SDS011;25635;51.146;17.162;2023-06-24T09:27:48;9.40;;;6.10;;
38805;SDS011;25635;51.146;17.162;2023-06-24T09:32:48;9.00;;;6.60;;
38805;SDS011;25635;51.146;17.162;2023-06-24T09:35:17;9.00;;;6.80;;
38805;SDS011;25635;51.146;17.162;2023-06-24T09:40:17;10.40;;;6.90;;
38805;SDS011;25635;51.146;17.162;2023-06-24T09:45:28;10.20;;;7.20;;
38805;SDS011;25635;51.146;17.162;2023-06-24T09:47:56;10.30;;;7.20;;
38805;SDS011;25635;51.146;17.162;2023-06-24T09:50:23;10.20;;;6.90;;
38805;SDS011;25635;51.146;17.162;2023-06-24T09:52:49;9.90;;;7.50;;
38805;SDS011;25635;51.146;17.162;2023-06-24T09:55:16;10.50;;;7.30;;
38805;SDS011;25635;51.146;17.162;2023-06-24T09:57:47;10.60;;;7.80;;
38805;SDS011;25635;51.146;17.162;2023-06-24T10:00:18;9.80;;;7.90;;
38805;SDS011;25635;51.146;17.162;2023-06-24T10:02:45;8.90;;;7.30;;
38805;SDS011;25635;51.146;17.162;2023-06-24T10:05:13;10.30;;;7.80;;
38805;SDS011;25635;51.146;17.162;2023-06-24T10:07:39;10.70;;;7.30;;
38805;SDS011;25635;51.146;17.162;2023-06-24T10:10:07;11.20;;;8.20;;
38805;SDS011;25635;51.146;17.162;2023-06-24T10:12:35;10.00;;;7.20;;
38805;SDS011;25635;51.146;17.162;2023-06-24T10:15:01;11.60;;;7.70;;
38805;SDS011;25635;51.146;17.162;2023-06-24T10:17:29;12.00;;;7.50;;
38805;SDS011;25635;51.146;17.162;2023-06-24T10:19:55;9.00;;;6.80;;
38805;SDS011;25635;51.146;17.162;2023-06-24T10:22:24;8.80;;;6.70;;
38805;SDS011;25635;51.146;17.162;2023-06-24T10:24:52;11.20;;;7.00;;
38805;SDS011;25635;51.146;17.162;2023-06-24T10:27:20;9.20;;;6.90;;
38805;SDS011;25635;51.146;17.162;2023-06-24T10:29:51;9.50;;;6.50;;
38805;SDS011;25635;51.146;17.162;2023-06-24T10:32:18;9.00;;;6.80;;
38805;SDS011;25635;51.146;17.162;2023-06-24T10:34:47;9.30;;;6.80;;
38805;SDS011;25635;51.146;17.162;2023-06-24T10:37:20;9.10;;;6.50;;
38805;SDS011;25635;51.146;17.162;2023-06-24T10:39:52;10.50;;;7.00;;
38805;SDS011;25635;51.146;17.162;2023-06-24T10:42:32;9.90;;;6.80;;
38805;SDS011;25635;51.146;17.162;2023-06-24T10:47:36;10.80;;;6.60;;
38805;SDS011;25635;51.146;17.162;2023-06-24T10:50:07;9.30;;;6.90;;
38805;SDS011;25635;51.146;17.162;2023-06-24T10:52:39;10.20;;;7.20;;
38805;SDS011;25635;51.146;17.162;2023-06-24T10:55:19;12.20;;;7.20;;
38805;SDS011;25635;51.146;17.162;2023-06-24T10:57:45;9.00;;;7.10;;
38805;SDS011;25635;51.146;17.162;2023-06-24T11:00:12;8.70;;;7.20;;
38805;SDS011;25635;51.146;17.162;2023-06-24T11:02:38;9.00;;;6.70;;
38805;SDS011;25635;51.146;17.162;2023-06-24T11:05:05;9.70;;;7.30;;
38805;SDS011;25635;51.146;17.162;2023-06-24T11:07:32;8.10;;;6.30;;
38805;SDS011;25635;51.146;17.162;2023-06-24T11:10:15;7.90;;;7.00;;
38805;SDS011;25635;51.146;17.162;2023-06-24T11:12:54;10.30;;;6.70;;
38805;SDS011;25635;51.146;17.162;2023-06-24T11:15:21;9.50;;;6.90;;
38805;SDS011;25635;51.146;17.162;2023-06-24T11:17:50;8.30;;;6.60;;
38805;SDS011;25635;51.146;17.162;2023-06-24T11:20:16;7.70;;;5.90;;
38805;SDS011;25635;51.146;17.162;2023-06-24T11:22:43;8.60;;;5.60;;
38805;SDS011;25635;51.146;17.162;2023-06-24T11:25:19;8.00;;;5.40;;
38805;SDS011;25635;51.146;17.162;2023-06-24T11:27:47;7.00;;;5.20;;
38805;SDS011;25635;51.146;17.162;2023-06-24T11:30:15;7.00;;;5.00;;
38805;SDS011;25635;51.146;17.162;2023-06-24T11:32:43;7.20;;;4.80;;
38805;SDS011;25635;51.146;17.162;2023-06-24T11:35:11;7.90;;;5.40;;
38805;SDS011;25635;51.146;17.162;2023-06-24T11:37:41;7.90;;;6.00;;
38805;SDS011;25635;51.146;17.162;2023-06-24T11:40:09;7.50;;;5.90;;
38805;SDS011;25635;51.146;17.162;2023-06-24T11:42:36;8.30;;;6.00;;
38805;SDS011;25635;51.146;17.162;2023-06-24T11:45:13;8.20;;;5.90;;
38805;SDS011;25635;51.146;17.162;2023-06-24T11:47:41;10.40;;;5.80;;
38805;SDS011;25635;51.146;17.162;2023-06-24T11:50:07;9.50;;;5.50;;
38805;SDS011;25635;51.146;17.162;2023-06-24T11:52:44;7.10;;;5.10;;
38805;SDS011;25635;51.146;17.162;2023-06-24T11:57:52;8.10;;;5.20;;
38805;SDS011;25635;51.146;17.162;2023-06-24T12:00:21;8.00;;;4.80;;
38805;SDS011;25635;51.146;17.162;2023-06-24T12:02:50;7.80;;;4.90;;
38805;SDS011;25635;51.146;17.162;2023-06-24T12:05:25;8.40;;;4.60;;
38805;SDS011;25635;51.146;17.162;2023-06-24T12:07:55;6.80;;;4.60;;
38805;SDS011;25635;51.146;17.162;2023-06-24T12:10:23;6.60;;;4.50;;
38805;SDS011;25635;51.146;17.162;2023-06-24T12:12:49;6.70;;;4.80;;
38805;SDS011;25635;51.146;17.162;2023-06-24T12:15:15;6.90;;;4.40;;
38805;SDS011;25635;51.146;17.162;2023-06-24T12:17:41;6.20;;;4.70;;
38805;SDS011;25635;51.146;17.162;2023-06-24T12:20:07;6.50;;;4.60;;
38805;SDS011;25635;51.146;17.162;2023-06-24T12:22:35;6.10;;;4.20;;
38805;SDS011;25635;51.146;17.162;2023-06-24T12:25:01;6.20;;;4.70;;
38805;SDS011;25635;51.146;17.162;2023-06-24T12:27:28;5.60;;;4.40;;
38805;SDS011;25635;51.146;17.162;2023-06-24T12:29:54;7.50;;;4.00;;
38805;SDS011;25635;51.146;17.162;2023-06-24T12:32:20;9.00;;;4.40;;
38805;SDS011;25635;51.146;17.162;2023-06-24T12:34:46;6.40;;;4.50;;
38805;SDS011;25635;51.146;17.162;2023-06-24T12:37:12;7.30;;;4.70;;
38805;SDS011;25635;51.146;17.162;2023-06-24T12:39:38;8.10;;;4.50;;
38805;SDS011;25635;51.146;17.162;2023-06-24T12:42:04;6.90;;;4.30;;
38805;SDS011;25635;51.146;17.162;2023-06-24T12:44:31;6.10;;;4.10;;
38805;SDS011;25635;51.146;17.162;2023-06-24T12:46:57;6.10;;;4.50;;
38805;SDS011;25635;51.146;17.162;2023-06-24T12:49:23;5.90;;;4.20;;
38805;SDS011;25635;51.146;17.162;2023-06-24T12:51:49;6.90;;;4.70;;
38805;SDS011;25635;51.146;17.162;2023-06-24T12:54:15;8.60;;;4.70;;
38805;SDS011;25635;51.146;17.162;2023-06-24T12:56:41;6.50;;;4.10;;
38805;SDS011;25635;51.146;17.162;2023-06-24T12:59:07;6.00;;;4.10;;
38805;SDS011;25635;51.146;17.162;2023-06-24T13:01:33;5.90;;;4.10;;
38805;SDS011;25635;51.146;17.162;2023-06-24T13:03:59;7.40;;;3.90;;
38805;SDS011;25635;51.146;17.162;2023-06-24T13:06:25;5.10;;;3.70;;
38805;SDS011;25635;51.146;17.162;2023-06-24T13:08:51;7.80;;;4.20;;
38805;SDS011;25635;51.146;17.162;2023-06-24T13:11:17;7.00;;;4.10;;
38805;SDS011;25635;51.146;17.162;2023-06-24T13:13:43;6.20;;;3.60;;
38805;SDS011;25635;51.146;17.162;2023-06-24T13:16:09;6.60;;;3.90;;
38805;SDS011;25635;51.146;17.162;2023-06-24T13:18:35;7.10;;;3.80;;
38805;SDS011;25635;51.146;17.162;2023-06-24T13:21:01;6.80;;;3.90;;
38805;SDS011;25635;51.146;17.162;2023-06-24T13:23:27;5.10;;;3.60;;
38805;SDS011;25635;51.146;17.162;2023-06-24T13:25:53;6.20;;;3.70;;
38805;SDS011;25635;51.146;17.162;2023-06-24T13:28:19;5.60;;;3.70;;
38805;SDS011;25635;51.146;17.162;2023-06-24T13:30:45;5.90;;;3.60;;
38805;SDS011;25635;51.146;17.162;2023-06-24T13:33:13;5.70;;;3.70;;
38805;SDS011;25635;51.146;17.162;2023-06-24T13:35:39;6.60;;;3.50;;
38805;SDS011;25635;51.146;17.162;2023-06-24T13:38:08;5.10;;;3.40;;
38805;SDS011;25635;51.146;17.162;2023-06-24T13:40:34;7.00;;;3.80;;
38805;SDS011;25635;51.146;17.162;2023-06-24T13:43:00;5.50;;;3.40;;
38805;SDS011;25635;51.146;17.162;2023-06-24T13:45:26;6.90;;;3.60;;
38805;SDS011;25635;51.146;17.162;2023-06-24T13:47:52;6.20;;;3.40;;
38805;SDS011;25635;51.146;17.162;2023-06-24T13:50:19;5.30;;;3.00;;
38805;SDS011;25635;51.146;17.162;2023-06-24T13:52:45;5.90;;;3.20;;
38805;SDS011;25635;51.146;17.162;2023-06-24T13:55:10;5.50;;;3.30;;
38805;SDS011;25635;51.146;17.162;2023-06-24T13:57:37;7.40;;;3.30;;
38805;SDS011;25635;51.146;17.162;2023-06-24T14:00:03;6.60;;;3.50;;
38805;SDS011;25635;51.146;17.162;2023-06-24T14:02:29;5.90;;;3.40;;
38805;SDS011;25635;51.146;17.162;2023-06-24T14:04:55;6.80;;;3.70;;
38805;SDS011;25635;51.146;17.162;2023-06-24T14:07:21;6.30;;;3.50;;
38805;SDS011;25635;51.146;17.162;2023-06-24T14:09:47;6.60;;;3.30;;
38805;SDS011;25635;51.146;17.162;2023-06-24T14:12:14;5.30;;;3.50;;
38805;SDS011;25635;51.146;17.162;2023-06-24T14:14:40;5.50;;;3.60;;
38805;SDS011;25635;51.146;17.162;2023-06-24T14:17:06;5.70;;;3.40;;
38805;SDS011;25635;51.146;17.162;2023-06-24T14:19:37;5.90;;;3.70;;
38805;SDS011;25635;51.146;17.162;2023-06-24T14:22:04;6.50;;;3.40;;
38805;SDS011;25635;51.146;17.162;2023-06-24T14:24:31;5.10;;;3.30;;
38805;SDS011;25635;51.146;17.162;2023-06-24T14:26:57;5.80;;;3.70;;
38805;SDS011;25635;51.146;17.162;2023-06-24T14:29:24;6.70;;;3.40;;
38805;SDS011;25635;51.146;17.162;2023-06-24T14:31:51;6.50;;;3.60;;
38805;SDS011;25635;51.146;17.162;2023-06-24T14:34:22;6.00;;;3.80;;
38805;SDS011;25635;51.146;17.162;2023-06-24T14:36:48;5.00;;;3.50;;
38805;SDS011;25635;51.146;17.162;2023-06-24T14:39:15;6.10;;;3.50;;
38805;SDS011;25635;51.146;17.162;2023-06-24T14:41:43;7.30;;;3.70;;
38805;SDS011;25635;51.146;17.162;2023-06-24T14:44:10;5.40;;;3.50;;
38805;SDS011;25635;51.146;17.162;2023-06-24T14:46:36;5.40;;;3.90;;
38805;SDS011;25635;51.146;17.162;2023-06-24T14:49:05;5.30;;;3.70;;
38805;SDS011;25635;51.146;17.162;2023-06-24T14:51:30;4.80;;;3.40;;
38805;SDS011;25635;51.146;17.162;2023-06-24T14:53:56;6.10;;;3.70;;
38805;SDS011;25635;51.146;17.162;2023-06-24T14:56:23;5.80;;;3.60;;